Time;durP1;ratioP1;P1;durP2;ratioP2;P2;SDS_P1;SDS_P2;PMS_P1;PMS_P2;Temp;Humidity;BMP_temperature;BMP_pressure;BME280_temperature;BME280_humidity;BME280_pressure;Samples;Min_cycle;Max_cycle;Signal;HPM_P1;HPM_P2
2022/09/02 00:01:18;;;;;;;2.35;1.00;;;;;;;8.57;69.03;99467.13;4784396;29;20443;-81
2022/09/02 00:03:45;;;;;;;2.58;1.15;;;;;;;8.63;68.99;99475.72;4787943;29;20046;-77
2022/09/02 00:06:13;;;;;;;1.40;0.90;;;;;;;8.70;69.04;99473.13;4764707;29;20110;-78
2022/09/02 00:08:39;;;;;;;1.30;0.88;;;;;;;8.72;68.64;99471.34;4788953;29;20040;-80
2022/09/02 00:11:07;;;;;;;1.20;0.82;;;;;;;8.71;68.56;99473.97;4757308;29;20149;-77
2022/09/02 00:13:36;;;;;;;1.50;0.85;;;;;;;8.73;68.42;99480.84;4771629;29;20039;-78
2022/09/02 00:16:03;;;;;;;0.85;0.70;;;;;;;8.72;68.37;99475.69;4787809;29;20051;-77
2022/09/02 00:18:31;;;;;;;1.48;0.85;;;;;;;8.73;68.52;99469.63;4787245;29;20043;-78
2022/09/02 00:20:57;;;;;;;1.48;0.75;;;;;;;8.76;68.46;99472.19;4773495;29;20091;-77
2022/09/02 00:23:23;;;;;;;1.67;0.80;;;;;;;8.83;68.24;99483.41;4787401;29;20050;-77
2022/09/02 00:25:49;;;;;;;1.75;0.75;;;;;;;8.80;68.03;99481.69;4780442;29;20050;-80
2022/09/02 00:28:16;;;;;;;2.00;0.80;;;;;;;8.83;67.58;99475.63;4790448;29;20055;-79
2022/09/02 00:30:43;;;;;;;0.77;0.68;;;;;;;8.76;68.13;99472.19;4787709;29;20047;-78
2022/09/02 00:33:10;;;;;;;1.70;0.73;;;;;;;8.71;67.98;99458.41;4789293;29;20111;-78
2022/09/02 00:35:36;;;;;;;0.88;0.70;;;;;;;8.85;67.63;99476.47;4787968;29;20043;-78
2022/09/02 00:38:04;;;;;;;0.70;0.70;;;;;;;8.82;67.31;99466.97;4773380;29;20078;-77
2022/09/02 00:40:31;;;;;;;1.65;0.73;;;;;;;8.89;67.64;99471.22;4787106;29;20396;-78
2022/09/02 00:42:57;;;;;;;1.50;1.17;;;;;;;8.98;67.33;99480.69;4788704;29;20039;-79
2022/09/02 00:45:24;;;;;;;1.38;0.75;;;;;;;8.99;67.19;99479.81;4801072;29;20665;-78
2022/09/02 00:47:50;;;;;;;1.63;0.80;;;;;;;8.99;67.36;99482.41;4786522;29;20051;-77
2022/09/02 00:50:22;;;;;;;1.75;0.70;;;;;;;8.95;67.00;99472.91;4788415;29;20671;-78
2022/09/02 00:52:52;;;;;;;;;;;;;;;9.01;66.91;99477.22;4771655;29;20500;-79
2022/09/02 00:55:23;;;;;;;0.68;0.63;;;;;;;8.91;66.69;99470.38;4786388;29;19928;-77
2022/09/02 00:57:58;;;;;;;1.75;1.00;;;;;;;8.90;66.41;99472.13;4786819;29;20114;-78
2022/09/02 01:00:32;;;;;;;4.15;1.65;;;;;;;9.02;66.53;99484.97;4800890;29;20146;-78
2022/09/02 01:03:03;;;;;;;3.58;1.83;;;;;;;8.98;66.27;99469.47;4785745;29;20059;-78
2022/09/02 01:05:32;;;;;;;2.58;1.45;;;;;;;9.02;66.43;99479.78;4787104;29;20069;-79
2022/09/02 01:07:58;;;;;;;3.13;1.40;;;;;;;9.01;66.07;99482.41;4786490;29;20141;-77
2022/09/02 01:10:28;;;;;;;1.60;1.20;;;;;;;8.89;66.57;99460.84;4784957;29;20500;-78
2022/09/02 01:12:56;;;;;;;2.20;1.30;;;;;;;8.96;66.49;99466.00;4780384;29;20055;-78
2022/09/02 01:15:23;;;;;;;3.03;1.15;;;;;;;8.98;66.05;99477.25;4801207;29;20174;-78
2022/09/02 01:17:50;;;;;;;1.65;1.20;;;;;;;8.95;66.29;99472.91;4785170;29;20073;-78
2022/09/02 01:20:24;;;;;;;4.07;1.55;;;;;;;8.96;66.35;99477.22;4788274;29;20096;-78
2022/09/02 01:22:51;;;;;;;1.88;1.20;;;;;;;8.95;66.06;99459.09;4787646;29;20134;-79
2022/09/02 01:25:23;;;;;;;3.17;1.17;;;;;;;9.01;66.01;99467.69;4772698;29;20127;-78
2022/09/02 01:27:50;;;;;;;2.22;0.95;;;;;;;8.93;65.97;99464.31;4793075;29;20196;-78
2022/09/02 01:30:20;;;;;;;2.83;0.98;;;;;;;8.99;65.76;99473.78;4789243;29;20047;-77
2022/09/02 01:32:48;;;;;;;0.73;0.70;;;;;;;8.97;65.84;99465.97;4786102;29;20047;-77
2022/09/02 01:35:15;;;;;;;2.55;0.90;;;;;;;8.95;65.69;99462.53;4786575;29;20073;-79
2022/09/02 01:37:43;;;;;;;1.48;0.90;;;;;;;8.94;65.79;99475.53;4785281;29;20724;-78
2022/09/02 01:40:11;;;;;;;1.90;0.82;;;;;;;8.92;66.04;99479.88;4786985;29;20110;-79
2022/09/02 01:42:38;;;;;;;1.35;1.10;;;;;;;8.92;65.74;99472.97;4785710;29;20054;-77
2022/09/02 01:45:06;;;;;;;4.13;1.00;;;;;;;8.92;65.83;99475.56;4770982;29;20117;-79
2022/09/02 01:47:32;;;;;;;0.82;0.80;;;;;;;8.91;66.16;99468.66;4800791;29;20051;-78
2022/09/02 01:49:58;;;;;;;1.33;0.85;;;;;;;8.98;66.07;99483.28;4763197;29;20047;-77
2022/09/02 01:52:26;;;;;;;2.50;1.05;;;;;;;8.96;66.09;99482.44;4790947;29;20043;-77
2022/09/02 01:54:53;;;;;;;1.98;0.90;;;;;;;8.93;66.35;99482.47;4794198;29;20043;-78
2022/09/02 01:57:19;;;;;;;1.30;0.88;;;;;;;8.91;66.23;99483.34;4780791;29;20527;-79
2022/09/02 01:59:45;;;;;;;0.98;0.85;;;;;;;8.95;66.41;99482.44;4785704;29;20047;-78
2022/09/02 02:02:15;;;;;;;1.42;0.70;;;;;;;8.86;66.34;99462.63;4786896;29;20089;-79
2022/09/02 02:04:41;;;;;;;2.00;1.00;;;;;;;8.94;66.36;99484.16;4789072;29;20046;-78
2022/09/02 02:07:08;;;;;;;2.65;1.20;;;;;;;8.87;66.51;99465.19;4785137;29;20053;-78
2022/09/02 02:09:34;;;;;;;2.80;1.30;;;;;;;8.93;66.31;99473.81;4771783;29;20385;-78
2022/09/02 02:12:01;;;;;;;1.88;1.33;;;;;;;8.94;66.57;99485.91;4787255;29;20414;-78
2022/09/02 02:14:29;;;;;;;1.45;0.95;;;;;;;8.98;66.58;99493.66;4785907;29;20043;-77
2022/09/02 02:16:55;;;;;;;4.13;1.40;;;;;;;8.99;66.91;99482.41;4786123;29;20047;-77
2022/09/02 02:19:21;;;;;;;1.40;0.98;;;;;;;9.04;66.92;99497.97;4787006;29;20087;-78
2022/09/02 02:21:47;;;;;;;2.05;0.93;;;;;;;9.10;67.02;99508.28;4786385;29;20059;-80
2022/09/02 02:24:14;;;;;;;1.75;0.65;;;;;;;9.08;67.14;99498.78;4785078;29;20039;-77
2022/09/02 02:26:41;;;;;;;0.60;0.55;;;;;;;8.89;67.30;99467.78;4784698;29;20062;-78
2022/09/02 02:29:08;;;;;;;0.90;0.60;;;;;;;9.25;67.27;99522.88;4770637;29;20483;-78
2022/09/02 02:31:36;;;;;;;0.47;0.47;;;;;;;9.21;67.45;99500.41;4771247;29;20770;-78
2022/09/02 02:34:03;;;;;;;0.50;0.50;;;;;;;9.28;67.26;99520.28;4792188;29;20577;-78
2022/09/02 02:36:30;;;;;;;0.95;0.50;;;;;;;9.33;67.39;99530.59;4801285;29;20050;-78
2022/09/02 02:38:56;;;;;;;0.80;0.60;;;;;;;9.28;67.36;99517.66;4784097;29;20052;-78
2022/09/02 02:41:23;;;;;;;0.50;0.50;;;;;;;9.26;67.46;99516.81;4790130;29;20066;-78
2022/09/02 02:43:49;;;;;;;0.70;0.52;;;;;;;9.30;66.98;99523.72;4784721;29;20088;-79
2022/09/02 02:46:15;;;;;;;0.95;0.40;;;;;;;9.29;67.19;99515.91;4784344;29;20134;-78
2022/09/02 02:48:41;;;;;;;0.47;0.47;;;;;;;9.26;66.99;99523.75;4786179;29;20142;-77
2022/09/02 02:51:08;;;;;;;0.90;0.50;;;;;;;9.16;67.08;99517.75;4800227;29;20055;-78
2022/09/02 02:53:35;;;;;;;1.42;0.50;;;;;;;9.19;67.42;99539.38;4770221;29;20040;-79
2022/09/02 02:56:04;;;;;;;0.50;0.50;;;;;;;9.18;66.97;99534.19;4769300;29;20576;-78
2022/09/02 02:58:31;;;;;;;0.50;0.50;;;;;;;9.17;67.09;99533.34;4784296;29;20657;-78
2022/09/02 03:00:58;;;;;;;0.57;0.40;;;;;;;9.24;67.24;99534.13;4776797;29;20075;-76
2022/09/02 03:03:24;;;;;;;0.63;0.50;;;;;;;9.28;67.29;99540.16;4784821;29;20047;-78
2022/09/02 03:05:53;;;;;;;0.40;0.40;;;;;;;9.23;67.36;99526.38;4785698;29;20428;-78
2022/09/02 03:08:20;;;;;;;1.20;0.40;;;;;;;9.20;67.06;99535.03;4771067;29;20050;-78
2022/09/02 03:10:53;;;;;;;2.15;0.77;;;;;;;9.10;66.76;99521.25;4783703;29;20047;-78
2022/09/02 03:13:22;;;;;;;3.90;0.70;;;;;;;9.12;67.33;99521.28;4767509;29;20087;-77
2022/09/02 03:15:49;;;;;;;0.77;0.70;;;;;;;9.07;66.94;99525.63;4801871;29;20055;-77
2022/09/02 03:18:16;;;;;;;0.63;0.63;;;;;;;8.96;66.55;99542.13;4784967;29;20039;-78
2022/09/02 03:20:42;;;;;;;0.88;0.70;;;;;;;8.87;66.99;99530.06;4781461;29;20486;-78
2022/09/02 03:23:12;;;;;;;3.65;0.90;;;;;;;9.06;67.10;99537.72;4787573;29;20043;-76
2022/09/02 03:25:43;;;;;;;1.15;0.70;;;;;;;9.11;66.94;99535.13;4788187;29;20072;-78
2022/09/02 03:28:16;;;;;;;1.90;0.85;;;;;;;9.18;66.84;99541.97;4814576;29;20074;-76
2022/09/02 03:30:45;;;;;;;2.67;1.20;;;;;;;9.11;66.80;99537.72;4796625;29;20111;-79
2022/09/02 03:33:13;;;;;;;1.60;0.98;;;;;;;9.08;66.77;99538.56;4806189;29;20047;-77
2022/09/02 03:35:42;;;;;;;2.85;1.00;;;;;;;9.22;66.60;99548.88;4788667;29;20115;-77
2022/09/02 03:38:10;;;;;;;7.15;1.45;;;;;;;9.36;66.60;99545.31;4788258;29;20043;-77
2022/09/02 03:40:36;;;;;;;3.38;1.35;;;;;;;9.38;66.11;99554.81;4773842;29;20054;-77
2022/09/02 03:43:02;;;;;;;2.15;0.80;;;;;;;9.44;66.38;99551.28;4793890;29;20047;-79
2022/09/02 03:45:31;;;;;;;3.25;1.30;;;;;;;9.48;66.20;99550.41;4772859;29;20479;-78
2022/09/02 03:48:02;;;;;;;3.50;1.00;;;;;;;9.51;65.98;99550.38;4792506;29;20054;-77
2022/09/02 03:50:38;;;;;;;1.90;0.90;;;;;;;9.63;66.07;99563.25;4789094;29;20058;-77
2022/09/02 03:53:05;;;;;;;1.88;0.90;;;;;;;9.69;65.81;99558.88;4797902;29;20395;-78
2022/09/02 03:55:32;;;;;;;2.30;0.73;;;;;;;9.84;65.93;99568.28;4821892;29;20137;-79
2022/09/02 03:57:59;;;;;;;2.30;0.82;;;;;;;9.98;65.29;99561.19;4792918;29;20051;-77
2022/09/02 04:00:30;;;;;;;1.05;0.60;;;;;;;10.24;65.51;99578.25;4774158;30;20090;-77
2022/09/02 04:03:01;;;;;;;1.30;0.70;;;;;;;10.42;64.81;99571.16;4802638;29;20042;-78
2022/09/02 04:05:28;;;;;;;2.95;1.00;;;;;;;10.52;64.46;99559.78;4821470;29;20050;-76
2022/09/02 04:07:56;;;;;;;1.35;0.80;;;;;;;10.71;64.33;99562.97;4779422;29;20058;-79
2022/09/02 04:10:23;;;;;;;1.95;0.50;;;;;;;10.85;63.47;99570.59;4774276;29;20054;-79
2022/09/02 04:12:50;;;;;;;0.73;0.50;;;;;;;10.81;62.78;99563.75;4789559;29;20062;-77
2022/09/02 04:15:18;;;;;;;2.03;0.60;;;;;;;10.73;62.38;99576.84;4772066;30;20109;-77
2022/09/02 04:17:44;;;;;;;0.50;0.50;;;;;;;10.55;62.04;99563.19;4785959;29;20519;-80
2022/09/02 04:20:13;;;;;;;1.38;0.80;;;;;;;10.65;62.26;99579.53;4787335;29;20137;-76
2022/09/02 04:22:40;;;;;;;0.52;0.52;;;;;;;10.64;61.41;99582.16;4775700;29;20504;-79
2022/09/02 04:25:07;;;;;;;2.00;0.90;;;;;;;10.67;61.74;99582.13;4771259;29;20155;-77
2022/09/02 04:27:34;;;;;;;10.65;8.88;;;;;;;10.74;60.89;99578.56;4787770;29;20053;-78
2022/09/02 04:30:00;;;;;;;2.05;1.00;;;;;;;10.87;60.96;99589.66;4787773;29;20053;-78
2022/09/02 04:32:30;;;;;;;2.70;0.93;;;;;;;10.88;60.67;99580.97;4787629;29;20050;-78
2022/09/02 04:34:57;;;;;;;1.75;1.10;;;;;;;10.97;59.95;99582.59;4787510;29;20115;-79
2022/09/02 04:37:24;;;;;;;3.28;0.70;;;;;;;10.89;59.87;99572.28;4801190;29;20630;-81
2022/09/02 04:39:51;;;;;;;2.17;0.63;;;;;;;11.05;59.38;99587.69;4786820;29;20062;-80
2022/09/02 04:42:18;;;;;;;1.38;0.70;;;;;;;11.08;59.84;99588.53;4787643;29;20049;-80
2022/09/02 04:44:45;;;;;;;2.55;0.80;;;;;;;11.08;58.87;99587.66;4794227;29;20608;-79
2022/09/02 04:47:12;;;;;;;0.77;0.63;;;;;;;11.06;58.97;99579.00;4787567;29;20581;-79
2022/09/02 04:49:42;;;;;;;1.75;0.93;;;;;;;10.90;58.78;99553.19;4793867;29;20047;-79
2022/09/02 04:52:10;;;;;;;2.00;1.08;;;;;;;11.06;58.45;99594.63;4786869;29;20071;-78
2022/09/02 04:54:38;;;;;;;0.68;0.63;;;;;;;11.03;58.49;99594.69;4809596;29;20074;-79
2022/09/02 04:57:06;;;;;;;2.03;0.60;;;;;;;10.92;57.97;99581.81;4788375;29;20051;-79
2022/09/02 04:59:35;;;;;;;1.00;0.65;;;;;;;11.03;58.21;99599.88;4781233;29;20550;-79
2022/09/02 05:02:08;;;;;;;0.90;0.52;;;;;;;10.89;57.79;99605.28;4787739;29;20055;-79
2022/09/02 05:04:34;;;;;;;2.47;0.77;;;;;;;10.77;58.28;99583.72;4785660;29;20050;-80
2022/09/02 05:07:02;;;;;;;0.88;0.70;;;;;;;10.93;58.68;99604.34;4771392;29;20117;-79
2022/09/02 05:09:32;;;;;;;2.35;0.60;;;;;;;11.14;58.89;99609.25;4758129;29;20150;-80
2022/09/02 05:12:03;;;;;;;1.10;0.55;;;;;;;11.22;58.43;99585.72;4770847;29;20065;-80
2022/09/02 05:14:37;;;;;;;0.88;0.63;;;;;;;11.56;57.79;99599.97;4770837;29;20490;-79
2022/09/02 05:17:06;;;;;;;1.95;0.80;;;;;;;11.64;57.87;99581.59;4785838;29;20043;-79
2022/09/02 05:19:33;;;;;;;2.45;0.90;;;;;;;11.67;57.15;99598.03;4772283;29;20128;-79
2022/09/02 05:22:00;;;;;;;2.05;0.50;;;;;;;11.63;56.87;99600.72;4774097;29;20043;-80
2022/09/02 05:24:34;;;;;;;0.82;0.45;;;;;;;11.37;57.01;99589.81;4776113;29;20058;-80
2022/09/02 05:27:05;;;;;;;0.95;0.68;;;;;;;11.25;57.09;99595.22;4789686;29;20572;-79
2022/09/02 05:29:34;;;;;;;2.28;0.52;;;;;;;11.30;57.43;99609.88;4779072;29;20103;-78
2022/09/02 05:32:00;;;;;;;2.40;0.68;;;;;;;11.30;57.25;99611.66;4759145;29;20078;-80
2022/09/02 05:34:26;;;;;;;0.88;0.80;;;;;;;11.25;57.47;99605.63;4767346;29;20062;-80
2022/09/02 05:36:56;;;;;;;1.15;0.63;;;;;;;11.40;57.33;99605.41;4767304;29;20049;-78
2022/09/02 05:39:24;;;;;;;1.20;0.70;;;;;;;11.68;57.30;99620.59;4786726;29;20066;-79
2022/09/02 05:41:50;;;;;;;1.30;0.55;;;;;;;12.18;56.83;99614.56;4772312;29;20038;-79
2022/09/02 05:44:17;;;;;;;0.85;0.70;;;;;;;12.57;56.40;99629.50;4772061;29;20050;-80
2022/09/02 05:46:44;;;;;;;0.88;0.70;;;;;;;12.66;55.39;99613.66;4789235;29;21052;-78
2022/09/02 05:49:17;;;;;;;1.40;0.90;;;;;;;12.40;54.69;99629.81;4786058;29;20050;-82
2022/09/02 05:51:59;;;;;;;1.20;1.00;;;;;;;12.11;55.13;99623.38;4785344;29;20862;-80
2022/09/02 05:54:32;;;;;;;2.05;0.90;;;;;;;12.19;55.36;99639.78;4754969;29;20055;-80
2022/09/02 05:57:07;;;;;;;3.10;0.65;;;;;;;12.32;55.73;99638.66;4771090;29;20050;-79
2022/09/02 05:59:35;;;;;;;;;;;;;;;12.29;55.40;99646.53;4786411;29;21932;-81
2022/09/02 06:02:02;;;;;;;1.10;0.50;;;;;;;12.31;55.54;99649.13;4770589;29;19925;-78
2022/09/02 06:04:29;;;;;;;2.40;0.70;;;;;;;12.15;55.65;99645.94;4785137;29;20107;-81
2022/09/02 06:06:56;;;;;;;0.63;0.40;;;;;;;11.98;56.20;99638.34;4785559;29;20051;-79
2022/09/02 06:09:22;;;;;;;0.80;0.40;;;;;;;12.13;57.03;99653.78;4770089;29;20369;-78
2022/09/02 06:11:51;;;;;;;2.28;0.50;;;;;;;13.28;58.32;99640.19;4785950;29;20500;-79
2022/09/02 06:14:26;;;;;;;0.50;0.50;;;;;;;14.45;56.52;99647.78;4787131;29;20043;-80
2022/09/02 06:16:55;;;;;;;0.77;0.50;;;;;;;14.91;55.21;99644.78;4777943;29;20074;-80
2022/09/02 06:19:31;;;;;;;1.27;0.65;;;;;;;16.42;54.56;99623.34;4802197;29;20436;-80
2022/09/02 06:22:01;;;;;;;1.58;0.52;;;;;;;17.02;51.70;99643.09;4780329;29;20055;-81
2022/09/02 06:24:28;;;;;;;1.25;0.60;;;;;;;16.71;50.13;99636.31;4786613;29;20589;-80
2022/09/02 06:26:55;;;;;;;3.00;0.65;;;;;;;16.08;49.84;99648.16;4786468;29;20047;-79
2022/09/02 06:29:24;;;;;;;1.23;0.45;;;;;;;15.33;49.92;99656.66;4787766;29;20054;-79
2022/09/02 06:31:52;;;;;;;1.00;0.57;;;;;;;14.84;50.33;99659.00;4801788;29;20431;-80
2022/09/02 06:34:25;;;;;;;0.77;0.60;;;;;;;14.27;50.59;99649.16;4786645;29;20497;-77
2022/09/02 06:36:52;;;;;;;0.45;0.35;;;;;;;14.50;50.75;99666.00;4784925;29;20047;-79
2022/09/02 06:39:22;;;;;;;0.60;0.30;;;;;;;15.33;50.74;99646.16;4785581;29;20098;-78
2022/09/02 06:41:49;;;;;;;0.52;0.50;;;;;;;16.26;49.34;99666.81;4800702;29;20055;-81
2022/09/02 06:44:20;;;;;;;0.98;0.57;;;;;;;16.98;47.63;99665.16;4785055;29;20137;-78
2022/09/02 06:46:53;;;;;;;0.85;0.50;;;;;;;17.23;45.86;99674.75;4770420;29;20051;-78
2022/09/02 06:49:21;;;;;;;0.65;0.50;;;;;;;17.55;45.75;99662.09;4788150;29;20544;-80
2022/09/02 06:51:50;;;;;;;1.92;0.65;;;;;;;17.80;44.72;99654.06;4783995;29;20516;-80
2022/09/02 06:54:19;;;;;;;1.83;0.50;;;;;;;17.59;44.27;99666.31;4769474;29;20058;-78
2022/09/02 06:56:49;;;;;;;0.90;0.57;;;;;;;18.09;44.31;99669.59;4783954;29;20055;-79
2022/09/02 06:59:19;;;;;;;0.75;0.50;;;;;;;19.79;44.01;99664.53;4770414;29;20057;-79
2022/09/02 07:01:48;;;;;;;;;;;;;;;22.50;41.57;99656.13;4784609;29;20150;-78
2022/09/02 07:07:07;;;;;;;2.58;0.63;;;;;;;23.06;36.03;99661.47;4782992;29;20043;-79
2022/09/02 07:09:39;;;;;;;1.27;0.65;;;;;;;22.34;36.13;99657.00;4782933;29;20050;-77
2022/09/02 07:12:13;;;;;;;1.58;0.80;;;;;;;21.46;36.97;99659.44;4779536;29;20039;-78
2022/09/02 07:14:46;;;;;;;2.70;0.50;;;;;;;22.14;36.99;99671.44;4777408;29;20468;-78
2022/09/02 07:17:16;;;;;;;1.55;0.57;;;;;;;21.86;35.27;99659.81;4775663;29;20058;-78
2022/09/02 07:19:45;;;;;;;1.20;0.50;;;;;;;21.00;35.76;99676.03;4769335;29;20752;-78
2022/09/02 07:22:14;;;;;;;3.08;0.50;;;;;;;19.85;36.27;99681.88;4783952;29;20516;-78
2022/09/02 07:24:42;;;;;;;1.17;0.57;;;;;;;18.77;37.50;99700.91;4769427;29;20047;-81
2022/09/02 07:27:10;;;;;;;0.55;0.45;;;;;;;18.11;38.74;99696.72;4783784;29;20054;-76
2022/09/02 07:29:37;;;;;;;0.88;0.45;;;;;;;17.70;39.60;99706.22;4755116;29;20055;-79
2022/09/02 07:32:04;;;;;;;0.75;0.50;;;;;;;17.68;40.18;99715.06;4784874;29;20051;-80
2022/09/02 07:34:30;;;;;;;2.15;0.70;;;;;;;17.84;40.40;99725.84;4799503;29;20055;-79
2022/09/02 07:36:58;;;;;;;0.45;0.40;;;;;;;17.37;40.33;99698.72;4800401;29;20050;-82
2022/09/02 07:39:25;;;;;;;2.85;0.60;;;;;;;17.01;40.36;99697.41;4798952;29;20051;-80
2022/09/02 07:41:52;;;;;;;0.90;0.60;;;;;;;17.11;40.66;99737.38;4770063;29;20051;-81
2022/09/02 07:44:22;;;;;;;4.13;0.70;;;;;;;17.08;40.64;99724.38;4794928;29;20043;-80
2022/09/02 07:46:50;;;;;;;2.05;0.55;;;;;;;17.45;40.35;99736.09;4785726;29;20047;-81
2022/09/02 07:49:19;;;;;;;0.73;0.60;;;;;;;18.56;39.04;99682.50;4771075;29;20423;-84
2022/09/02 07:51:49;;;;;;;2.90;1.10;;;;;;;20.41;39.10;99714.31;4787056;29;20055;-80
2022/09/02 07:54:22;;;;;;;2.25;0.60;;;;;;;23.33;35.04;99686.41;4788003;29;20050;-84
2022/09/02 07:56:53;;;;;;;1.42;0.50;;;;;;;25.25;31.38;99652.16;4783769;29;20051;-83
2022/09/02 07:59:20;;;;;;;2.17;0.60;;;;;;;27.12;29.61;99690.56;4784016;29;20050;-80
2022/09/02 08:01:51;;;;;;;;;;;;;;;27.91;27.62;99683.31;4784552;29;20702;-81
2022/09/02 08:04:20;;;;;;;0.73;0.60;;;;;;;27.88;27.80;99687.09;4783346;29;19929;-78
2022/09/02 08:06:47;;;;;;;0.75;0.70;;;;;;;28.90;26.52;99690.16;4782719;29;20548;-81
2022/09/02 08:09:13;;;;;;;1.65;0.70;;;;;;;28.78;24.31;99676.00;4782727;29;20051;-80
2022/09/02 08:11:43;;;;;;;3.35;0.90;;;;;;;27.29;25.35;99699.84;4778351;29;20055;-79
2022/09/02 08:14:13;;;;;;;1.60;0.77;;;;;;;25.12;26.34;99708.09;4771699;29;20038;-81
2022/09/02 08:16:39;;;;;;;1.40;0.80;;;;;;;23.22;27.91;99713.63;4788770;29;20417;-78
2022/09/02 08:19:06;;;;;;;0.90;0.70;;;;;;;21.75;29.10;99709.88;4802395;29;20122;-81
2022/09/02 08:21:32;;;;;;;1.05;0.70;;;;;;;20.39;30.31;99704.75;4787357;29;20428;-81
2022/09/02 08:23:59;;;;;;;2.22;0.80;;;;;;;19.77;31.76;99728.91;4788119;29;20038;-81
2022/09/02 08:26:27;;;;;;;1.17;0.70;;;;;;;19.48;31.66;99734.66;4800766;29;20515;-80
2022/09/02 08:28:54;;;;;;;1.52;0.80;;;;;;;19.41;32.82;99736.72;4787611;29;20047;-81
2022/09/02 08:31:21;;;;;;;0.70;0.60;;;;;;;21.20;31.94;99739.28;4789998;29;20531;-81
2022/09/02 08:33:47;;;;;;;1.60;0.45;;;;;;;23.33;30.08;99708.47;4786601;29;20070;-80
2022/09/02 08:36:14;;;;;;;1.45;0.60;;;;;;;24.59;28.97;99730.38;4787691;29;20078;-80
2022/09/02 08:38:43;;;;;;;2.95;0.70;;;;;;;24.78;27.77;99705.19;4787110;29;20039;-79
2022/09/02 08:41:21;;;;;;;3.08;0.65;;;;;;;24.99;26.77;99729.41;4788717;29;20495;-79
2022/09/02 08:43:50;;;;;;;1.05;0.50;;;;;;;23.28;28.12;99730.00;4786844;29;20043;-79
2022/09/02 08:46:17;;;;;;;0.88;0.60;;;;;;;22.24;28.99;99746.78;4789339;29;20054;-81
2022/09/02 08:49:07;;;;;;;2.78;0.57;;;;;;;21.30;29.57;99738.81;4789995;29;20043;-81
2022/09/02 08:51:54;;;;;;;1.00;0.63;;;;;;;20.60;30.63;99758.31;4770259;29;20050;-79
2022/09/02 08:54:43;;;;;;;0.60;0.60;;;;;;;19.99;32.00;99774.50;4803263;29;20054;-80
2022/09/02 08:57:11;;;;;;;1.38;0.50;;;;;;;19.32;33.32;99767.91;4786418;29;20051;-81
2022/09/02 08:59:37;;;;;;;0.90;0.47;;;;;;;18.86;34.58;99769.06;4785899;29;20523;-80
2022/09/02 09:02:12;;;;;;;2.42;0.60;;;;;;;18.94;35.33;99787.16;4784994;29;20198;-80
2022/09/02 09:05:05;;;;;;;1.23;0.70;;;;;;;20.25;35.02;99789.97;4787644;29;20555;-81
2022/09/02 09:07:36;;;;;;;2.22;0.73;;;;;;;20.22;34.51;99787.50;4790818;29;20137;-81
2022/09/02 09:10:23;;;;;;;1.73;0.95;;;;;;;19.68;35.45;99801.47;4779744;29;20070;-81
2022/09/02 09:13:20;;;;;;;0.85;0.70;;;;;;;18.90;37.30;99806.69;4796662;29;20129;-80
2022/09/02 09:16:03;;;;;;;2.33;0.77;;;;;;;21.12;38.20;99789.13;4772101;29;20107;-78
2022/09/02 09:18:43;;;;;;;1.00;0.70;;;;;;;23.81;34.08;99768.28;4786749;29;20054;-79
2022/09/02 09:21:09;;;;;;;1.48;0.60;;;;;;;26.22;31.31;99753.47;4786507;29;20054;-82
2022/09/02 09:23:38;;;;;;;2.38;0.80;;;;;;;27.60;28.41;99772.22;4800969;29;20463;-80
2022/09/02 09:26:11;;;;;;;1.52;0.75;;;;;;;29.07;26.15;99759.13;4772209;29;20453;-83
2022/09/02 09:28:40;;;;;;;2.40;0.73;;;;;;;29.26;26.01;99774.44;4789074;29;20087;-81
2022/09/02 09:31:13;;;;;;;0.65;0.65;;;;;;;28.60;25.72;99772.94;4792592;29;20526;-80
2022/09/02 09:34:03;;;;;;;3.67;0.98;;;;;;;29.30;24.76;99762.47;4776726;29;20095;-82
2022/09/02 09:36:52;;;;;;;3.17;0.87;;;;;;;28.50;25.00;99785.41;4795970;29;20499;-83
2022/09/02 09:39:21;;;;;;;1.25;0.80;;;;;;;29.07;24.72;99788.59;4781621;29;20023;-81
2022/09/02 09:41:48;;;;;;;1.40;0.88;;;;;;;28.53;23.93;99774.44;4805931;29;20123;-80
2022/09/02 09:44:38;;;;;;;3.03;1.00;;;;;;;28.02;23.58;99790.22;4781737;29;20054;-80
2022/09/02 09:47:18;;;;;;;1.48;0.90;;;;;;;28.16;24.19;99767.69;4806442;29;20540;-79
2022/09/02 09:49:51;;;;;;;1.30;1.00;;;;;;;27.25;23.46;99793.69;4789167;29;20129;-81
2022/09/02 09:52:28;;;;;;;3.25;1.02;;;;;;;26.52;24.68;99794.78;4782074;29;20051;-79
2022/09/02 09:55:25;;;;;;;2.40;0.98;;;;;;;26.82;23.77;99796.09;4787696;29;20062;-77
2022/09/02 09:57:54;;;;;;;5.25;1.25;;;;;;;25.10;24.90;99790.75;4785524;29;20043;-80
2022/09/02 10:00:28;;;;;;;2.00;1.08;;;;;;;25.02;25.73;99811.69;4768383;30;20055;-79
2022/09/02 10:02:59;;;;;;;2.00;1.17;;;;;;;26.29;25.63;99786.69;4795854;29;20042;-76
2022/09/02 10:05:30;;;;;;;2.33;0.80;;;;;;;26.69;23.66;99804.16;4804113;29;20046;-79
2022/09/02 10:08:13;;;;;;;1.85;0.80;;;;;;;25.21;24.18;99795.31;4793723;29;20127;-78
2022/09/02 10:10:39;;;;;;;3.15;0.82;;;;;;;24.05;24.88;99811.06;4787870;29;20129;-79
2022/09/02 10:13:24;;;;;;;2.85;0.60;;;;;;;23.98;26.03;99812.41;4789046;29;20044;-79
2022/09/02 10:15:56;;;;;;;1.70;0.60;;;;;;;24.57;25.58;99814.72;4773293;29;20526;-82
2022/09/02 10:18:34;;;;;;;1.65;0.52;;;;;;;25.75;24.61;99797.78;4790846;29;20051;-81
2022/09/02 10:21:11;;;;;;;1.83;0.80;;;;;;;25.21;23.50;99789.13;4786617;29;20089;-79
2022/09/02 10:24:02;;;;;;;3.25;0.80;;;;;;;23.50;25.00;99804.78;4804446;29;20051;-79
2022/09/02 10:26:32;;;;;;;1.50;0.55;;;;;;;23.41;25.47;99807.06;4798864;29;20042;-78
2022/09/02 10:29:10;;;;;;;;;;;;;;;23.90;25.59;99823.50;4781212;29;20577;-79
2022/09/02 10:31:39;;;;;;;0.70;0.60;;;;;;;23.55;25.61;99831.88;4789828;29;19964;-79
2022/09/02 10:34:13;;;;;;;2.28;0.85;;;;;;;22.34;26.28;99801.91;4770903;29;20111;-78
2022/09/02 10:36:48;;;;;;;3.95;0.70;;;;;;;21.70;26.66;99833.75;4800882;29;20039;-79
2022/09/02 10:39:32;;;;;;;2.33;0.73;;;;;;;20.83;27.43;99847.03;4783542;29;20054;-78
2022/09/02 10:42:18;;;;;;;2.85;0.60;;;;;;;20.21;28.17;99854.47;4801614;29;20065;-80
2022/09/02 10:44:53;;;;;;;1.95;0.50;;;;;;;19.77;28.21;99859.09;4806273;29;20042;-78
2022/09/02 10:47:39;;;;;;;3.85;0.70;;;;;;;19.10;29.24;99863.81;4797955;29;20065;-80
2022/09/02 10:50:22;;;;;;;2.95;0.70;;;;;;;18.88;30.26;99871.78;4781097;30;20035;-79
2022/09/02 10:53:38;;;;;;;1.63;0.60;;;;;;;18.69;30.53;99876.94;4784372;29;20117;-79
2022/09/02 10:56:15;;;;;;;3.00;0.70;;;;;;;18.44;31.15;99859.50;4740170;29;20120;-78
2022/09/02 10:58:55;;;;;;;1.75;0.73;;;;;;;18.48;31.28;99877.78;4791869;29;20070;-78
2022/09/02 11:01:27;;;;;;;2.10;0.80;;;;;;;18.28;31.94;99889.09;4789446;29;20055;-79
2022/09/02 11:04:09;;;;;;;0.93;0.45;;;;;;;17.97;31.91;99879.75;4777653;29;20070;-78
2022/09/02 11:06:39;;;;;;;2.88;0.52;;;;;;;17.79;32.86;99891.81;4805036;29;20096;-77
2022/09/02 11:09:25;;;;;;;0.73;0.60;;;;;;;17.78;33.37;99892.75;4798117;29;20046;-80
2022/09/02 11:12:15;;;;;;;0.77;0.70;;;;;;;17.47;33.92;99896.47;4786435;29;20546;-79
2022/09/02 11:14:54;;;;;;;1.02;0.50;;;;;;;17.15;34.33;99901.97;4807744;29;20053;-79
2022/09/02 11:17:34;;;;;;;3.03;0.70;;;;;;;16.85;35.92;99919.59;4803920;29;20094;-80
2022/09/02 11:20:04;;;;;;;1.00;0.68;;;;;;;16.56;36.78;99932.78;4791938;29;20042;-80
2022/09/02 11:23:12;;;;;;;1.85;0.60;;;;;;;16.33;38.25;99937.88;4803674;29;20047;-78
2022/09/02 11:25:46;;;;;;;2.08;0.43;;;;;;;16.44;38.90;99930.53;4787565;29;20058;-81
2022/09/02 11:28:13;;;;;;;5.00;0.88;;;;;;;16.65;39.81;99949.16;4774487;29;20054;-79
2022/09/02 11:30:48;;;;;;;1.58;0.68;;;;;;;16.69;40.21;99954.28;4771389;30;20120;-81
2022/09/02 11:33:31;;;;;;;1.05;0.60;;;;;;;17.04;39.99;99948.81;4796168;29;20057;-82
2022/09/02 11:35:58;;;;;;;1.23;0.50;;;;;;;17.08;39.86;99931.16;4801164;29;20122;-77
2022/09/02 11:38:57;;;;;;;1.33;0.60;;;;;;;17.14;39.39;99933.59;4802427;29;20047;-79
2022/09/02 11:42:05;;;;;;;0.85;0.60;;;;;;;17.22;39.22;99946.47;4790333;29;20051;-79
2022/09/02 11:44:30;;;;;;;1.58;0.60;;;;;;;16.75;39.39;99947.94;4748960;30;20202;-77
2022/09/02 11:47:23;;;;;;;1.52;0.60;;;;;;;16.33;39.81;99951.84;4780555;29;20082;-79
2022/09/02 11:50:25;;;;;;;1.02;0.50;;;;;;;16.04;40.17;99955.34;4789254;29;20074;-80
2022/09/02 11:52:55;;;;;;;1.25;0.70;;;;;;;15.85;40.52;99950.59;4804367;29;20063;-79
2022/09/02 11:55:26;;;;;;;1.48;0.70;;;;;;;15.90;40.40;99951.38;4800967;29;20438;-80
2022/09/02 11:57:56;;;;;;;3.03;0.93;;;;;;;16.02;40.60;99949.28;4805632;29;20043;-78